createdAt,value
2022-10-19T00:13:30.663Z,78.2
2022-10-19T00:28:39.909Z,78.4
2022-10-19T00:43:49.050Z,78.9
2022-10-19T00:58:58.500Z,79.6
2022-10-19T01:14:13.987Z,78.9
2022-10-19T01:29:22.934Z,79.2
2022-10-19T01:44:32.115Z,78.7
2022-10-19T01:59:41.117Z,78.5
2022-10-19T02:14:50.686Z,78.8
2022-10-19T02:29:59.932Z,79.1
2022-10-19T02:45:09.636Z,78.8
2022-10-19T03:00:18.961Z,79.3
2022-10-19T03:15:30.449Z,78.8
2022-10-19T03:30:39.839Z,78.8
2022-10-19T03:45:49.154Z,78.4
2022-10-19T04:00:59.158Z,78.8
2022-10-19T04:16:08.497Z,78.7
2022-10-19T04:31:17.575Z,78.9
2022-10-19T04:46:26.976Z,78.9
2022-10-19T05:01:36.270Z,79.4
2022-10-19T05:16:45.738Z,79.7
2022-10-19T05:31:54.994Z,79.8
2022-10-19T05:47:04.480Z,79.9
2022-10-19T06:02:14.324Z,79.9
2022-10-19T06:17:25.786Z,79.8
2022-10-19T06:32:35.531Z,79.9
2022-10-19T06:47:45.223Z,79.9
2022-10-19T07:02:54.875Z,79.9
2022-10-19T07:18:04.750Z,79.8
2022-10-19T07:33:14.228Z,79.8
2022-10-19T07:48:24.815Z,79.7
2022-10-19T08:05:11.407Z,79.6
2022-10-19T08:20:22.422Z,79.5
2022-10-19T08:35:32.024Z,79.2
2022-10-19T08:50:41.475Z,78.8
2022-10-19T09:05:51.730Z,78.4
2022-10-19T09:21:00.870Z,78.1
2022-10-19T09:36:51.233Z,77.7
2022-10-19T09:52:01.505Z,77.4
2022-10-19T10:07:11.319Z,77.2
2022-10-19T10:22:20.761Z,76.9
2022-10-19T10:37:30.525Z,76.6
2022-10-19T10:52:39.895Z,76.3
2022-10-19T11:07:50.010Z,76.2
2022-10-19T11:22:59.786Z,76.1
2022-10-19T11:38:30.427Z,75.9
2022-10-19T11:53:40.540Z,75.4
2022-10-19T12:08:56.895Z,75.6
2022-10-19T12:24:07.224Z,73.6
2022-10-19T12:39:16.668Z,73.8
2022-10-19T12:54:26.318Z,74.8
2022-10-19T13:09:35.727Z,74.3
2022-10-19T13:24:46.728Z,68.9
2022-10-19T13:39:57.232Z,67.1
2022-10-19T13:55:05.729Z,70
2022-10-19T14:10:14.838Z,72.3
2022-10-19T14:25:26.150Z,73.1
2022-10-19T14:40:35.182Z,73.6
2022-10-19T14:55:43.881Z,74
2022-10-19T15:10:53.664Z,74.2
2022-10-19T15:26:02.516Z,74.5
2022-10-19T15:41:12.115Z,74.8
2022-10-19T15:56:21.329Z,74.9
2022-10-19T16:11:30.369Z,74.6
2022-10-19T16:26:39.239Z,74.7
2022-10-19T16:41:48.845Z,74.9
2022-10-19T16:56:57.966Z,75.2
2022-10-19T17:12:07.437Z,75
2022-10-19T17:27:17.443Z,74.6
2022-10-19T17:42:26.866Z,75.1
2022-10-19T17:57:38.251Z,75.5
2022-10-19T18:12:47.751Z,75.6
2022-10-19T18:27:56.846Z,75.7
2022-10-19T18:43:06.294Z,75.6
2022-10-19T18:58:16.500Z,75.6
2022-10-19T19:13:26.047Z,75.6
2022-10-19T19:28:45.254Z,75.5
2022-10-19T19:43:57.345Z,75.3
2022-10-19T19:59:06.598Z,75.3
2022-10-19T20:14:16.161Z,74.6
2022-10-19T20:29:27.180Z,74.7
2022-10-19T20:44:36.483Z,75.1
2022-10-19T20:59:46.102Z,74.7
2022-10-19T21:14:56.036Z,75.4
2022-10-19T21:30:04.871Z,75
2022-10-19T21:45:31.682Z,74.7
2022-10-19T22:00:42.101Z,74.7
2022-10-19T22:15:51.553Z,75.1
2022-10-19T22:31:01.229Z,75.3
2022-10-19T22:46:10.451Z,75
2022-10-19T23:01:20.461Z,74.9
2022-10-19T23:16:30.370Z,75.4
2022-10-19T23:31:39.607Z,75.6
2022-10-19T23:46:48.873Z,75.5
